sensor_id;sensor_type;location;lat;lon;timestamp;pressure;altitude;pressure_sealevel;temperature;humidity
10652;BME280;5374;42.742;23.266;2023-06-14T00:01:28;95122.91;;;18.01;100.00
10652;BME280;5374;42.742;23.266;2023-06-14T00:04:17;95124.50;;;18.02;100.00
10652;BME280;5374;42.742;23.266;2023-06-14T00:07:06;95119.72;;;17.99;100.00
10652;BME280;5374;42.742;23.266;2023-06-14T00:09:54;95109.50;;;17.87;100.00
10652;BME280;5374;42.742;23.266;2023-06-14T00:12:41;95111.28;;;17.92;100.00
10652;BME280;5374;42.742;23.266;2023-06-14T00:15:28;95118.75;;;17.95;100.00
10652;BME280;5374;42.742;23.266;2023-06-14T00:18:16;95126.31;;;17.93;100.00
10652;BME280;5374;42.742;23.266;2023-06-14T00:21:05;95123.13;;;17.91;100.00
10652;BME280;5374;42.742;23.266;2023-06-14T00:23:52;95118.25;;;17.93;100.00
10652;BME280;5374;42.742;23.266;2023-06-14T00:26:39;95112.97;;;17.88;100.00
10652;BME280;5374;42.742;23.266;2023-06-14T00:29:26;95096.03;;;17.79;100.00
10652;BME280;5374;42.742;23.266;2023-06-14T00:32:13;95108.06;;;17.81;100.00
10652;BME280;5374;42.742;23.266;2023-06-14T00:35:00;95090.88;;;17.68;100.00
10652;BME280;5374;42.742;23.266;2023-06-14T00:37:49;95107.25;;;17.81;100.00
10652;BME280;5374;42.742;23.266;2023-06-14T00:40:36;95099.59;;;17.74;100.00
10652;BME280;5374;42.742;23.266;2023-06-14T00:43:23;95085.69;;;17.58;100.00
10652;BME280;5374;42.742;23.266;2023-06-14T00:46:10;95103.09;;;17.74;100.00
10652;BME280;5374;42.742;23.266;2023-06-14T00:48:58;95104.69;;;17.75;100.00
10652;BME280;5374;42.742;23.266;2023-06-14T00:51:47;95110.53;;;17.77;100.00
10652;BME280;5374;42.742;23.266;2023-06-14T00:54:36;95108.25;;;17.71;100.00
10652;BME280;5374;42.742;23.266;2023-06-14T00:57:23;95097.94;;;17.64;100.00
10652;BME280;5374;42.742;23.266;2023-06-14T01:00:11;95103.28;;;17.64;100.00
10652;BME280;5374;42.742;23.266;2023-06-14T01:02:59;95099.13;;;17.72;100.00
10652;BME280;5374;42.742;23.266;2023-06-14T01:05:47;95089.88;;;17.64;100.00
10652;BME280;5374;42.742;23.266;2023-06-14T01:08:42;95103.09;;;17.74;100.00
10652;BME280;5374;42.742;23.266;2023-06-14T01:11:37;95103.09;;;17.74;100.00
10652;BME280;5374;42.742;23.266;2023-06-14T01:14:27;95091.72;;;17.64;100.00
10652;BME280;5374;42.742;23.266;2023-06-14T01:17:15;95092.16;;;17.71;100.00
10652;BME280;5374;42.742;23.266;2023-06-14T01:20:04;95091.16;;;17.67;100.00
10652;BME280;5374;42.742;23.266;2023-06-14T01:22:57;95093.25;;;17.70;100.00
10652;BME280;5374;42.742;23.266;2023-06-14T01:25:44;95098.50;;;17.75;100.00
10652;BME280;5374;42.742;23.266;2023-06-14T01:28:38;95074.03;;;17.63;100.00
10652;BME280;5374;42.742;23.266;2023-06-14T01:31:25;95095.53;;;17.76;100.00
10652;BME280;5374;42.742;23.266;2023-06-14T01:34:15;95081.22;;;17.67;100.00
10652;BME280;5374;42.742;23.266;2023-06-14T01:37:02;95100.50;;;17.69;100.00
10652;BME280;5374;42.742;23.266;2023-06-14T01:39:52;95095.75;;;17.66;100.00
10652;BME280;5374;42.742;23.266;2023-06-14T01:42:42;95100.31;;;17.66;100.00
10652;BME280;5374;42.742;23.266;2023-06-14T01:45:31;95097.22;;;17.72;100.00
10652;BME280;5374;42.742;23.266;2023-06-14T01:48:20;95106.06;;;17.73;100.00
10652;BME280;5374;42.742;23.266;2023-06-14T01:51:08;95079.63;;;17.66;100.00
10652;BME280;5374;42.742;23.266;2023-06-14T01:53:55;95111.63;;;17.76;100.00
10652;BME280;5374;42.742;23.266;2023-06-14T01:56:44;95106.88;;;17.73;100.00
10652;BME280;5374;42.742;23.266;2023-06-14T01:59:31;95106.69;;;17.70;100.00
10652;BME280;5374;42.742;23.266;2023-06-14T02:02:20;95111.16;;;17.74;100.00
10652;BME280;5374;42.742;23.266;2023-06-14T02:05:07;95112.72;;;17.75;100.00
10652;BME280;5374;42.742;23.266;2023-06-14T02:07:56;95120.78;;;17.75;100.00
10652;BME280;5374;42.742;23.266;2023-06-14T02:10:43;95122.19;;;17.73;100.00
10652;BME280;5374;42.742;23.266;2023-06-14T02:13:31;95125.16;;;17.71;100.00
10652;BME280;5374;42.742;23.266;2023-06-14T02:16:20;95119.31;;;17.69;100.00
10652;BME280;5374;42.742;23.266;2023-06-14T02:19:08;95126.16;;;17.75;100.00
10652;BME280;5374;42.742;23.266;2023-06-14T02:21:55;95124.56;;;17.74;100.00
10652;BME280;5374;42.742;23.266;2023-06-14T02:24:43;95129.84;;;17.66;100.00
10652;BME280;5374;42.742;23.266;2023-06-14T02:27:31;95139.09;;;17.73;100.00
10652;BME280;5374;42.742;23.266;2023-06-14T02:30:21;95112.66;;;17.53;100.00
10652;BME280;5374;42.742;23.266;2023-06-14T02:33:08;95104.91;;;17.52;100.00
10652;BME280;5374;42.742;23.266;2023-06-14T02:35:58;95122.09;;;17.64;100.00
10652;BME280;5374;42.742;23.266;2023-06-14T02:38:45;95119.00;;;17.57;100.00
10652;BME280;5374;42.742;23.266;2023-06-14T02:41:33;95118.81;;;17.54;100.00
10652;BME280;5374;42.742;23.266;2023-06-14T02:44:24;95130.66;;;17.66;100.00
10652;BME280;5374;42.742;23.266;2023-06-14T02:47:13;95118.81;;;17.67;100.00
10652;BME280;5374;42.742;23.266;2023-06-14T02:50:01;95086.91;;;17.52;100.00
10652;BME280;5374;42.742;23.266;2023-06-14T02:52:48;95088.78;;;17.52;100.00
10652;BME280;5374;42.742;23.266;2023-06-14T02:55:38;95115.03;;;17.68;100.00
10652;BME280;5374;42.742;23.266;2023-06-14T02:58:25;95112.06;;;17.56;100.00
10652;BME280;5374;42.742;23.266;2023-06-14T03:01:33;95081.28;;;17.26;100.00
10652;BME280;5374;42.742;23.266;2023-06-14T03:05:17;95035.41;;;16.87;100.00
10652;BME280;5374;42.742;23.266;2023-06-14T03:12:42;95039.88;;;16.91;100.00
10652;BME280;5374;42.742;23.266;2023-06-14T03:15:54;95044.25;;;16.87;100.00
10652;BME280;5374;42.742;23.266;2023-06-14T03:34:21;95095.69;;;17.30;100.00
10652;BME280;5374;42.742;23.266;2023-06-14T03:37:35;95175.31;;;17.76;100.00
10652;BME280;5374;42.742;23.266;2023-06-14T03:44:21;95114.75;;;17.56;100.00
10652;BME280;5374;42.742;23.266;2023-06-14T03:47:10;95154.22;;;17.83;100.00
10652;BME280;5374;42.742;23.266;2023-06-14T03:50:01;95093.84;;;17.53;100.00
10652;BME280;5374;42.742;23.266;2023-06-14T03:53:01;95133.34;;;17.66;100.00
10652;BME280;5374;42.742;23.266;2023-06-14T03:55:49;95136.22;;;17.70;100.00
10652;BME280;5374;42.742;23.266;2023-06-14T03:58:38;95127.16;;;17.80;100.00
10652;BME280;5374;42.742;23.266;2023-06-14T04:01:25;95160.41;;;18.06;100.00
10652;BME280;5374;42.742;23.266;2023-06-14T04:04:15;95150.53;;;18.15;100.00
10652;BME280;5374;42.742;23.266;2023-06-14T04:07:08;95142.09;;;18.30;100.00
10652;BME280;5374;42.742;23.266;2023-06-14T04:09:55;95045.72;;;17.93;100.00
10652;BME280;5374;42.742;23.266;2023-06-14T04:12:42;95152.03;;;18.97;100.00
10652;BME280;5374;42.742;23.266;2023-06-14T04:15:30;95157.56;;;19.31;100.00
10652;BME280;5374;42.742;23.266;2023-06-14T04:18:17;95153.56;;;19.68;100.00
10652;BME280;5374;42.742;23.266;2023-06-14T04:21:05;95153.31;;;20.13;100.00
10652;BME280;5374;42.742;23.266;2023-06-14T04:23:55;95142.22;;;20.06;100.00
10652;BME280;5374;42.742;23.266;2023-06-14T04:26:43;95167.09;;;20.11;100.00
10652;BME280;5374;42.742;23.266;2023-06-14T04:29:33;95153.28;;;19.96;100.00
10652;BME280;5374;42.742;23.266;2023-06-14T04:32:23;95153.44;;;19.91;100.00
10652;BME280;5374;42.742;23.266;2023-06-14T04:35:11;95168.50;;;19.92;100.00
10652;BME280;5374;42.742;23.266;2023-06-14T04:37:58;95165.81;;;19.92;100.00
10652;BME280;5374;42.742;23.266;2023-06-14T04:40:47;95161.09;;;20.06;100.00
10652;BME280;5374;42.742;23.266;2023-06-14T04:43:34;95160.59;;;20.21;100.00
10652;BME280;5374;42.742;23.266;2023-06-14T04:46:23;95163.13;;;20.35;100.00
10652;BME280;5374;42.742;23.266;2023-06-14T04:49:11;95162.38;;;20.43;100.00
10652;BME280;5374;42.742;23.266;2023-06-14T04:52:01;95156.03;;;20.47;100.00
10652;BME280;5374;42.742;23.266;2023-06-14T04:54:48;95181.88;;;20.66;100.00
10652;BME280;5374;42.742;23.266;2023-06-14T04:57:38;95185.38;;;20.75;100.00
10652;BME280;5374;42.742;23.266;2023-06-14T05:00:26;95181.88;;;20.74;100.00
10652;BME280;5374;42.742;23.266;2023-06-14T05:03:13;95189.97;;;20.74;100.00
10652;BME280;5374;42.742;23.266;2023-06-14T05:06:00;95187.56;;;20.81;100.00
10652;BME280;5374;42.742;23.266;2023-06-14T05:08:48;95196.59;;;20.86;100.00
10652;BME280;5374;42.742;23.266;2023-06-14T05:11:35;95189.47;;;20.81;100.00
10652;BME280;5374;42.742;23.266;2023-06-14T05:14:23;95197.75;;;20.76;100.00
10652;BME280;5374;42.742;23.266;2023-06-14T05:17:11;95196.31;;;20.70;100.00
10652;BME280;5374;42.742;23.266;2023-06-14T05:19:58;95192.81;;;20.61;100.00
10652;BME280;5374;42.742;23.266;2023-06-14T05:22:45;95198.84;;;20.58;100.00
10652;BME280;5374;42.742;23.266;2023-06-14T05:25:33;95194.59;;;20.39;100.00
10652;BME280;5374;42.742;23.266;2023-06-14T05:28:21;95212.47;;;20.35;100.00
10652;BME280;5374;42.742;23.266;2023-06-14T05:31:09;95206.31;;;20.26;100.00
10652;BME280;5374;42.742;23.266;2023-06-14T05:33:57;95214.88;;;20.28;100.00
10652;BME280;5374;42.742;23.266;2023-06-14T05:36:44;95209.16;;;20.21;100.00
10652;BME280;5374;42.742;23.266;2023-06-14T05:39:31;95219.44;;;20.19;100.00
10652;BME280;5374;42.742;23.266;2023-06-14T05:42:18;95214.69;;;20.07;100.00
10652;BME280;5374;42.742;23.266;2023-06-14T05:45:06;95221.50;;;20.05;100.00
10652;BME280;5374;42.742;23.266;2023-06-14T05:47:55;95207.19;;;19.96;100.00
10652;BME280;5374;42.742;23.266;2023-06-14T05:50:42;95196.56;;;19.91;100.00
10652;BME280;5374;42.742;23.266;2023-06-14T05:53:29;95217.06;;;20.09;100.00
10652;BME280;5374;42.742;23.266;2023-06-14T05:56:17;95221.00;;;20.11;100.00
10652;BME280;5374;42.742;23.266;2023-06-14T05:59:04;95219.59;;;20.14;100.00
10652;BME280;5374;42.742;23.266;2023-06-14T06:01:51;95221.22;;;20.32;100.00
10652;BME280;5374;42.742;23.266;2023-06-14T06:04:40;95219.97;;;20.38;100.00
10652;BME280;5374;42.742;23.266;2023-06-14T06:07:27;95208.88;;;20.48;100.00
10652;BME280;5374;42.742;23.266;2023-06-14T06:10:14;95229.47;;;20.79;100.00
10652;BME280;5374;42.742;23.266;2023-06-14T06:13:01;95229.00;;;20.86;100.00
10652;BME280;5374;42.742;23.266;2023-06-14T06:15:49;95227.56;;;20.88;100.00
10652;BME280;5374;42.742;23.266;2023-06-14T06:18:36;95226.78;;;20.96;100.00
10652;BME280;5374;42.742;23.266;2023-06-14T06:21:25;95224.84;;;21.05;100.00
10652;BME280;5374;42.742;23.266;2023-06-14T06:24:12;95236.59;;;21.09;100.00
10652;BME280;5374;42.742;23.266;2023-06-14T06:26:59;95237.53;;;21.13;100.00
10652;BME280;5374;42.742;23.266;2023-06-14T06:29:48;95243.75;;;21.23;100.00
10652;BME280;5374;42.742;23.266;2023-06-14T06:32:35;95242.75;;;21.36;100.00
10652;BME280;5374;42.742;23.266;2023-06-14T06:35:22;95241.41;;;21.50;100.00
10652;BME280;5374;42.742;23.266;2023-06-14T06:38:11;95225.91;;;21.39;100.00
10652;BME280;5374;42.742;23.266;2023-06-14T06:40:58;95241.25;;;21.56;100.00
10652;BME280;5374;42.742;23.266;2023-06-14T06:43:45;95229.22;;;21.44;100.00
10652;BME280;5374;42.742;23.266;2023-06-14T06:46:34;95232.19;;;21.60;100.00
10652;BME280;5374;42.742;23.266;2023-06-14T06:49:26;95244.22;;;22.09;100.00
10652;BME280;5374;42.742;23.266;2023-06-14T06:52:13;95239.56;;;23.02;100.00
10652;BME280;5374;42.742;23.266;2023-06-14T06:55:02;95228.09;;;24.11;100.00
10652;BME280;5374;42.742;23.266;2023-06-14T06:57:50;95230.69;;;24.84;100.00
10652;BME280;5374;42.742;23.266;2023-06-14T07:00:38;95214.34;;;25.40;100.00
10652;BME280;5374;42.742;23.266;2023-06-14T07:03:25;95194.94;;;26.04;70.17
10652;BME280;5374;42.742;23.266;2023-06-14T07:06:12;95222.09;;;26.90;62.68
10652;BME280;5374;42.742;23.266;2023-06-14T07:09:00;95203.97;;;27.40;60.95
10652;BME280;5374;42.742;23.266;2023-06-14T07:11:48;95203.88;;;28.24;58.76
10652;BME280;5374;42.742;23.266;2023-06-14T07:14:35;95207.13;;;28.93;54.71
10652;BME280;5374;42.742;23.266;2023-06-14T07:17:22;95235.22;;;28.90;53.24
10652;BME280;5374;42.742;23.266;2023-06-14T07:20:10;95232.72;;;28.51;54.43
10652;BME280;5374;42.742;23.266;2023-06-14T07:22:59;95237.13;;;28.86;52.52
10652;BME280;5374;42.742;23.266;2023-06-14T07:25:46;95234.06;;;28.91;53.23
10652;BME280;5374;42.742;23.266;2023-06-14T07:28:35;95224.03;;;28.42;53.39
10652;BME280;5374;42.742;23.266;2023-06-14T07:31:22;95223.44;;;28.07;54.40
10652;BME280;5374;42.742;23.266;2023-06-14T07:34:09;95238.34;;;27.86;54.58
10652;BME280;5374;42.742;23.266;2023-06-14T07:36:57;95220.72;;;27.38;57.94
10652;BME280;5374;42.742;23.266;2023-06-14T07:39:44;95235.88;;;26.78;58.29
10652;BME280;5374;42.742;23.266;2023-06-14T07:42:31;95227.25;;;26.56;58.31
10652;BME280;5374;42.742;23.266;2023-06-14T07:45:19;95239.34;;;26.40;58.38
10652;BME280;5374;42.742;23.266;2023-06-14T07:48:07;95235.31;;;26.34;60.32
10652;BME280;5374;42.742;23.266;2023-06-14T07:50:54;95225.13;;;26.15;59.15
10652;BME280;5374;42.742;23.266;2023-06-14T07:53:41;95232.75;;;26.25;59.95
10652;BME280;5374;42.742;23.266;2023-06-14T07:56:28;95237.16;;;26.30;61.39
10652;BME280;5374;42.742;23.266;2023-06-14T07:59:15;95259.19;;;26.24;59.76
10652;BME280;5374;42.742;23.266;2023-06-14T08:02:05;95255.22;;;26.22;59.63
10652;BME280;5374;42.742;23.266;2023-06-14T08:04:52;95258.00;;;25.91;60.07
10652;BME280;5374;42.742;23.266;2023-06-14T08:07:39;95235.88;;;25.76;61.75
10652;BME280;5374;42.742;23.266;2023-06-14T08:10:28;95252.03;;;25.69;61.91
10652;BME280;5374;42.742;23.266;2023-06-14T08:13:15;95256.22;;;26.14;59.90
10652;BME280;5374;42.742;23.266;2023-06-14T08:16:02;95261.03;;;26.90;60.02
10652;BME280;5374;42.742;23.266;2023-06-14T08:18:52;95269.00;;;27.38;58.88
10652;BME280;5374;42.742;23.266;2023-06-14T08:21:39;95269.22;;;27.90;56.28
10652;BME280;5374;42.742;23.266;2023-06-14T08:24:26;95248.72;;;27.77;56.06
10652;BME280;5374;42.742;23.266;2023-06-14T08:27:13;95271.66;;;27.96;54.79
10652;BME280;5374;42.742;23.266;2023-06-14T08:30:01;95248.44;;;28.09;54.87
10652;BME280;5374;42.742;23.266;2023-06-14T08:32:48;95254.88;;;28.73;55.33
10652;BME280;5374;42.742;23.266;2023-06-14T08:35:38;95265.56;;;29.45;50.81
10652;BME280;5374;42.742;23.266;2023-06-14T08:38:25;95240.81;;;29.71;50.05
10652;BME280;5374;42.742;23.266;2023-06-14T08:41:20;95265.41;;;29.68;48.35
10652;BME280;5374;42.742;23.266;2023-06-14T08:44:09;95252.72;;;29.49;49.25
10652;BME280;5374;42.742;23.266;2023-06-14T08:46:56;95251.41;;;29.39;49.65
10652;BME280;5374;42.742;23.266;2023-06-14T08:49:46;95244.28;;;29.68;49.48
10652;BME280;5374;42.742;23.266;2023-06-14T08:52:38;95253.09;;;29.14;47.40
10652;BME280;5374;42.742;23.266;2023-06-14T08:55:26;95251.16;;;28.84;51.03
10652;BME280;5374;42.742;23.266;2023-06-14T08:58:13;95261.38;;;28.35;50.34
10652;BME280;5374;42.742;23.266;2023-06-14T09:01:02;95252.50;;;28.18;51.94
10652;BME280;5374;42.742;23.266;2023-06-14T09:03:50;95250.03;;;28.10;52.74
10652;BME280;5374;42.742;23.266;2023-06-14T09:06:37;95259.44;;;27.89;52.49
10652;BME280;5374;42.742;23.266;2023-06-14T09:09:26;95255.63;;;27.71;52.80
10652;BME280;5374;42.742;23.266;2023-06-14T09:12:13;95249.38;;;27.71;51.22
10652;BME280;5374;42.742;23.266;2023-06-14T09:15:00;95241.69;;;27.76;51.75
10652;BME280;5374;42.742;23.266;2023-06-14T09:17:51;95228.53;;;28.08;51.78
10652;BME280;5374;42.742;23.266;2023-06-14T09:20:38;95218.19;;;28.44;50.98
10652;BME280;5374;42.742;23.266;2023-06-14T09:23:25;95234.94;;;28.72;48.54
10652;BME280;5374;42.742;23.266;2023-06-14T09:26:15;95235.88;;;28.27;53.82
10652;BME280;5374;42.742;23.266;2023-06-14T09:29:05;95235.25;;;28.37;50.15
10652;BME280;5374;42.742;23.266;2023-06-14T09:31:52;95230.31;;;28.46;52.29
10652;BME280;5374;42.742;23.266;2023-06-14T09:34:39;95217.94;;;28.56;49.42
10652;BME280;5374;42.742;23.266;2023-06-14T09:37:28;95237.75;;;28.49;49.87
10652;BME280;5374;42.742;23.266;2023-06-14T09:40:20;95231.88;;;28.47;49.09
10652;BME280;5374;42.742;23.266;2023-06-14T09:43:08;95222.78;;;28.66;49.69
10652;BME280;5374;42.742;23.266;2023-06-14T09:45:56;95218.72;;;28.83;49.50
10652;BME280;5374;42.742;23.266;2023-06-14T09:48:43;95207.81;;;28.56;50.45
10652;BME280;5374;42.742;23.266;2023-06-14T09:51:30;95217.63;;;27.40;51.83
10652;BME280;5374;42.742;23.266;2023-06-14T09:54:22;95224.88;;;27.74;54.36
10652;BME280;5374;42.742;23.266;2023-06-14T09:57:10;95212.13;;;28.31;50.30
10652;BME280;5374;42.742;23.266;2023-06-14T10:00:01;95209.00;;;28.85;49.86
10652;BME280;5374;42.742;23.266;2023-06-14T10:02:54;95196.72;;;29.06;49.35
10652;BME280;5374;42.742;23.266;2023-06-14T10:05:48;95211.72;;;29.19;48.86
10652;BME280;5374;42.742;23.266;2023-06-14T10:08:43;95200.47;;;28.90;49.30
10652;BME280;5374;42.742;23.266;2023-06-14T10:11:32;95186.28;;;28.81;51.66
10652;BME280;5374;42.742;23.266;2023-06-14T10:14:20;95193.38;;;28.30;50.86
10652;BME280;5374;42.742;23.266;2023-06-14T10:17:20;95181.31;;;28.61;49.76
10652;BME280;5374;42.742;23.266;2023-06-14T10:20:16;95185.63;;;28.91;47.67
10652;BME280;5374;42.742;23.266;2023-06-14T10:23:11;95174.44;;;29.04;48.52
10652;BME280;5374;42.742;23.266;2023-06-14T10:26:00;95175.91;;;29.31;48.97
10652;BME280;5374;42.742;23.266;2023-06-14T10:28:56;95160.94;;;29.62;51.86
10652;BME280;5374;42.742;23.266;2023-06-14T10:31:45;95165.41;;;29.84;48.13
10652;BME280;5374;42.742;23.266;2023-06-14T10:34:38;95182.84;;;29.58;47.14
10652;BME280;5374;42.742;23.266;2023-06-14T10:37:26;95177.44;;;29.29;47.73
10652;BME280;5374;42.742;23.266;2023-06-14T10:40:29;95180.94;;;28.92;47.70
10652;BME280;5374;42.742;23.266;2023-06-14T10:43:24;95166.75;;;27.97;49.91
10652;BME280;5374;42.742;23.266;2023-06-14T10:46:16;95180.81;;;28.25;49.31
10652;BME280;5374;42.742;23.266;2023-06-14T10:49:03;95168.50;;;28.65;50.21
10652;BME280;5374;42.742;23.266;2023-06-14T10:51:57;95159.19;;;29.03;51.25
10652;BME280;5374;42.742;23.266;2023-06-14T10:54:59;95143.69;;;29.14;48.37
10652;BME280;5374;42.742;23.266;2023-06-14T10:57:48;95158.28;;;29.29;46.62
10652;BME280;5374;42.742;23.266;2023-06-14T11:00:37;95155.84;;;28.83;48.39
10652;BME280;5374;42.742;23.266;2023-06-14T11:03:42;95140.81;;;28.70;49.34
10652;BME280;5374;42.742;23.266;2023-06-14T11:06:44;95136.44;;;28.32;50.15
10652;BME280;5374;42.742;23.266;2023-06-14T11:09:50;95142.19;;;28.53;48.81
10652;BME280;5374;42.742;23.266;2023-06-14T11:12:39;95136.75;;;28.56;48.43
10652;BME280;5374;42.742;23.266;2023-06-14T11:15:29;95139.31;;;28.76;48.86
10652;BME280;5374;42.742;23.266;2023-06-14T11:18:17;95128.31;;;28.35;51.22
10652;BME280;5374;42.742;23.266;2023-06-14T11:21:04;95112.28;;;28.34;48.84
10652;BME280;5374;42.742;23.266;2023-06-14T11:23:52;95132.81;;;28.54;48.64
10652;BME280;5374;42.742;23.266;2023-06-14T11:26:42;95132.03;;;28.53;49.38
10652;BME280;5374;42.742;23.266;2023-06-14T11:29:29;95132.13;;;28.61;47.51
10652;BME280;5374;42.742;23.266;2023-06-14T11:32:17;95129.47;;;28.34;48.24
10652;BME280;5374;42.742;23.266;2023-06-14T11:35:05;95134.72;;;27.67;49.86
10652;BME280;5374;42.742;23.266;2023-06-14T11:37:53;95125.88;;;28.00;50.28
10652;BME280;5374;42.742;23.266;2023-06-14T11:40:44;95125.56;;;27.79;50.28
10652;BME280;5374;42.742;23.266;2023-06-14T11:43:33;95119.06;;;28.17;51.16
10652;BME280;5374;42.742;23.266;2023-06-14T11:46:21;95114.06;;;28.52;49.03
10652;BME280;5374;42.742;23.266;2023-06-14T11:49:10;95121.41;;;28.45;48.07
10652;BME280;5374;42.742;23.266;2023-06-14T11:51:57;95096.63;;;28.31;48.07
10652;BME280;5374;42.742;23.266;2023-06-14T11:54:47;95107.78;;;28.48;48.47
10652;BME280;5374;42.742;23.266;2023-06-14T11:57:35;95101.06;;;28.12;48.76
10652;BME280;5374;42.742;23.266;2023-06-14T12:00:26;95080.78;;;28.13;47.61
10652;BME280;5374;42.742;23.266;2023-06-14T12:03:14;95084.06;;;28.22;47.42
10652;BME280;5374;42.742;23.266;2023-06-14T12:06:05;95097.09;;;27.80;48.70
10652;BME280;5374;42.742;23.266;2023-06-14T12:08:55;95077.06;;;27.69;48.53
10652;BME280;5374;42.742;23.266;2023-06-14T12:11:42;95079.00;;;27.68;51.01
10652;BME280;5374;42.742;23.266;2023-06-14T12:14:30;95067.38;;;28.01;48.06
10652;BME280;5374;42.742;23.266;2023-06-14T12:17:19;95084.13;;;28.30;48.64
10652;BME280;5374;42.742;23.266;2023-06-14T12:20:07;95066.25;;;28.36;47.61
10652;BME280;5374;42.742;23.266;2023-06-14T12:22:58;95057.47;;;28.53;47.75
10652;BME280;5374;42.742;23.266;2023-06-14T12:25:47;95063.41;;;28.58;47.21
10652;BME280;5374;42.742;23.266;2023-06-14T12:28:39;95067.44;;;28.72;45.97
10652;BME280;5374;42.742;23.266;2023-06-14T12:31:27;95046.34;;;28.72;46.21
10652;BME280;5374;42.742;23.266;2023-06-14T12:34:16;95062.34;;;28.70;48.39
10652;BME280;5374;42.742;23.266;2023-06-14T12:37:04;95037.84;;;28.40;46.57
10652;BME280;5374;42.742;23.266;2023-06-14T12:39:52;95053.06;;;28.41;46.40
10652;BME280;5374;42.742;23.266;2023-06-14T12:42:40;95042.13;;;27.81;47.19
10652;BME280;5374;42.742;23.266;2023-06-14T12:45:27;95042.84;;;27.75;46.66
10652;BME280;5374;42.742;23.266;2023-06-14T12:48:16;95038.25;;;27.82;46.29
10652;BME280;5374;42.742;23.266;2023-06-14T12:51:04;95036.63;;;28.08;46.64
10652;BME280;5374;42.742;23.266;2023-06-14T12:53:52;95037.09;;;28.13;46.89
10652;BME280;5374;42.742;23.266;2023-06-14T12:56:39;95034.22;;;28.33;45.67
10652;BME280;5374;42.742;23.266;2023-06-14T12:59:27;95037.56;;;28.52;43.96
10652;BME280;5374;42.742;23.266;2023-06-14T13:02:20;95010.47;;;28.07;44.71
10652;BME280;5374;42.742;23.266;2023-06-14T13:05:08;95022.97;;;28.38;44.41
10652;BME280;5374;42.742;23.266;2023-06-14T13:07:56;95024.81;;;28.30;44.26
10652;BME280;5374;42.742;23.266;2023-06-14T13:10:44;95043.72;;;28.12;46.02
10652;BME280;5374;42.742;23.266;2023-06-14T13:13:31;95039.59;;;27.96;46.39
10652;BME280;5374;42.742;23.266;2023-06-14T13:16:18;95038.25;;;27.82;46.58
10652;BME280;5374;42.742;23.266;2023-06-14T13:19:05;95045.66;;;27.55;47.19
10652;BME280;5374;42.742;23.266;2023-06-14T13:21:52;95004.88;;;27.40;47.00
10652;BME280;5374;42.742;23.266;2023-06-14T13:24:41;95035.34;;;26.96;47.28
10652;BME280;5374;42.742;23.266;2023-06-14T13:27:28;95033.69;;;26.69;47.13
10652;BME280;5374;42.742;23.266;2023-06-14T13:30:15;95051.22;;;26.48;48.44
10652;BME280;5374;42.742;23.266;2023-06-14T13:33:03;95059.66;;;26.05;50.87
10652;BME280;5374;42.742;23.266;2023-06-14T13:35:50;95051.25;;;25.59;53.24
10652;BME280;5374;42.742;23.266;2023-06-14T13:38:38;95063.34;;;25.62;55.77
10652;BME280;5374;42.742;23.266;2023-06-14T13:41:28;95048.50;;;24.93;61.84
10652;BME280;5374;42.742;23.266;2023-06-14T13:44:17;95068.88;;;24.55;67.33
10652;BME280;5374;42.742;23.266;2023-06-14T13:47:07;95063.13;;;24.44;68.50
10652;BME280;5374;42.742;23.266;2023-06-14T13:49:54;95062.16;;;23.97;68.94
10652;BME280;5374;42.742;23.266;2023-06-14T13:52:41;95049.56;;;23.76;71.28
10652;BME280;5374;42.742;23.266;2023-06-14T13:55:28;95054.78;;;23.33;71.65
10652;BME280;5374;42.742;23.266;2023-06-14T13:58:17;95053.13;;;23.04;75.17
10652;BME280;5374;42.742;23.266;2023-06-14T14:01:04;95044.28;;;22.82;79.55
10652;BME280;5374;42.742;23.266;2023-06-14T14:03:51;95062.06;;;22.71;84.98
10652;BME280;5374;42.742;23.266;2023-06-14T14:06:38;95058.97;;;22.61;86.46
10652;BME280;5374;42.742;23.266;2023-06-14T14:09:25;95049.00;;;22.40;91.19
10652;BME280;5374;42.742;23.266;2023-06-14T14:12:12;95073.22;;;22.25;86.23
10652;BME280;5374;42.742;23.266;2023-06-14T14:15:01;95083.19;;;22.12;85.89
10652;BME280;5374;42.742;23.266;2023-06-14T14:17:48;95093.59;;;22.22;85.17
10652;BME280;5374;42.742;23.266;2023-06-14T14:20:36;95071.25;;;22.13;87.27
10652;BME280;5374;42.742;23.266;2023-06-14T14:23:24;95090.28;;;22.16;84.63
10652;BME280;5374;42.742;23.266;2023-06-14T14:26:11;95096.09;;;22.27;81.89
10652;BME280;5374;42.742;23.266;2023-06-14T14:28:58;95106.06;;;22.35;82.05
10652;BME280;5374;42.742;23.266;2023-06-14T14:31:47;95105.31;;;22.47;86.17
10652;BME280;5374;42.742;23.266;2023-06-14T14:34:34;95100.88;;;22.42;90.40
10652;BME280;5374;42.742;23.266;2023-06-14T14:37:21;95117.69;;;22.36;99.35
10652;BME280;5374;42.742;23.266;2023-06-14T14:40:08;95116.84;;;21.94;100.00
10652;BME280;5374;42.742;23.266;2023-06-14T14:42:56;95106.16;;;21.76;100.00
10652;BME280;5374;42.742;23.266;2023-06-14T14:45:43;95104.09;;;21.53;100.00
10652;BME280;5374;42.742;23.266;2023-06-14T14:48:32;95123.69;;;21.70;100.00
10652;BME280;5374;42.742;23.266;2023-06-14T14:51:19;95122.53;;;21.80;100.00
10652;BME280;5374;42.742;23.266;2023-06-14T14:54:06;95074.13;;;21.45;100.00
10652;BME280;5374;42.742;23.266;2023-06-14T14:56:53;95120.44;;;21.86;100.00
10652;BME280;5374;42.742;23.266;2023-06-14T14:59:40;95102.84;;;21.71;100.00
10652;BME280;5374;42.742;23.266;2023-06-14T15:02:28;95123.97;;;21.77;100.00
10652;BME280;5374;42.742;23.266;2023-06-14T15:05:17;95123.34;;;21.72;100.00
10652;BME280;5374;42.742;23.266;2023-06-14T15:08:04;95108.63;;;21.40;100.00
10652;BME280;5374;42.742;23.266;2023-06-14T15:10:56;95117.91;;;21.51;100.00
10652;BME280;5374;42.742;23.266;2023-06-14T15:13:43;95125.81;;;21.27;100.00